createdAt,value
2019-03-13T00:01:04.224Z,91856.73
2019-03-13T00:03:52.140Z,91856.84
2019-03-13T00:06:40.596Z,91858.59
2019-03-13T00:09:30.063Z,91856.30
2019-03-13T00:12:17.668Z,91853.23
2019-03-13T00:15:05.888Z,91850.22
2019-03-13T00:17:54.003Z,91855.77
2019-03-13T00:20:42.437Z,91851.12
2019-03-13T00:23:30.666Z,91846.84
2019-03-13T00:26:18.724Z,91843.47
2019-03-13T00:29:07.148Z,91841.95
2019-03-13T00:31:55.590Z,91839.19
2019-03-13T00:34:44.366Z,91840.95
2019-03-13T00:37:32.484Z,91850.97
2019-03-13T00:40:20.862Z,91848.00
2019-03-13T00:43:08.940Z,91847.27
2019-03-13T00:45:57.515Z,91854.67
2019-03-13T00:48:45.142Z,91855.13
2019-03-13T00:51:36.731Z,91853.45
2019-03-13T00:54:22.803Z,91850.39
2019-03-13T00:57:10.939Z,91858.75
2019-03-13T00:59:59.108Z,91843.53
2019-03-13T01:02:47.237Z,91846.89
2019-03-13T01:05:43.001Z,91855.90
2019-03-13T01:08:31.491Z,91853.09
2019-03-13T01:11:20.922Z,91847.45
2019-03-13T01:14:08.915Z,91847.55
2019-03-13T01:16:56.732Z,91847.55
2019-03-13T01:19:44.480Z,91846.45
2019-03-13T01:22:32.836Z,91846.26
2019-03-13T01:25:20.318Z,91839.16
2019-03-13T01:28:09.047Z,91839.27
2019-03-13T01:31:05.744Z,91844.76
2019-03-13T01:33:55.232Z,91836.04
2019-03-13T01:36:43.285Z,91837.09
2019-03-13T01:39:31.601Z,91845.02
2019-03-13T01:42:19.358Z,91838.30
2019-03-13T01:45:07.745Z,91838.91
2019-03-13T01:47:56.315Z,91834.48
2019-03-13T01:50:44.688Z,91838.91
2019-03-13T01:53:32.409Z,91840.23
2019-03-13T01:56:20.828Z,91840.98
2019-03-13T01:59:08.816Z,91833.25
2019-03-13T02:01:57.043Z,91840.61
2019-03-13T02:04:45.426Z,91837.83
2019-03-13T02:07:33.823Z,91845.44
2019-03-13T02:10:22.189Z,91853.19
2019-03-13T02:13:11.455Z,91847.31
2019-03-13T02:15:59.576Z,91849.36
2019-03-13T02:18:47.623Z,91858.25
2019-03-13T02:21:35.985Z,91847.02
2019-03-13T02:24:24.406Z,91850.99
2019-03-13T02:27:12.530Z,91859.98
2019-03-13T02:30:00.969Z,91860.18
2019-03-13T02:32:48.876Z,91859.86
2019-03-13T02:35:37.255Z,91863.44
2019-03-13T02:38:25.833Z,91867.33
2019-03-13T02:41:13.883Z,91873.80
2019-03-13T02:44:02.285Z,91875.39
2019-03-13T02:46:50.178Z,91875.49
2019-03-13T02:49:38.168Z,91884.47
2019-03-13T02:52:26.123Z,91888.23
2019-03-13T02:55:14.581Z,91889.00
2019-03-13T02:58:02.305Z,91897.64
2019-03-13T03:01:21.398Z,91890.83
2019-03-13T03:04:10.716Z,91906.61
2019-03-13T03:06:58.454Z,91909.30
2019-03-13T03:09:46.331Z,91907.97
2019-03-13T03:12:34.352Z,91907.87
2019-03-13T03:15:23.896Z,91911.00
2019-03-13T03:18:12.467Z,91913.23
2019-03-13T03:20:59.979Z,91918.95
2019-03-13T03:23:48.442Z,91914.97
2019-03-13T03:26:36.755Z,91917.61
2019-03-13T03:29:25.198Z,91922.66
2019-03-13T03:32:13.676Z,91928.95
2019-03-13T03:35:01.947Z,91931.94
2019-03-13T03:37:49.556Z,91926.61
2019-03-13T03:40:37.971Z,91928.95
2019-03-13T03:43:39.478Z,91925.48
2019-03-13T03:46:15.630Z,91924.09
2019-03-13T03:49:04.057Z,91917.22
2019-03-13T03:51:51.924Z,91923.45
2019-03-13T03:54:40.299Z,91922.42
2019-03-13T03:57:28.659Z,91928.58
2019-03-13T04:00:17.743Z,91922.83
2019-03-13T04:03:06.248Z,91933.47
2019-03-13T04:05:54.664Z,91938.06
2019-03-13T04:08:43.055Z,91932.23
2019-03-13T04:11:30.697Z,91940.91
2019-03-13T04:14:18.420Z,91936.02
2019-03-13T04:17:13.079Z,91947.12
2019-03-13T04:20:01.329Z,91941.63
2019-03-13T04:22:49.484Z,91944.19
2019-03-13T04:25:37.553Z,91949.56
2019-03-13T04:28:25.473Z,91950.10
2019-03-13T04:31:13.104Z,91957.42
2019-03-13T04:34:01.101Z,91960.07
2019-03-13T04:36:49.213Z,91953.25
2019-03-13T04:39:37.112Z,91951.63
2019-03-13T04:42:25.227Z,91945.82
2019-03-13T04:45:13.343Z,91956.00
2019-03-13T04:48:01.339Z,91963.14
2019-03-13T04:50:49.720Z,91967.20
2019-03-13T04:53:38.225Z,91969.47
2019-03-13T04:56:26.089Z,91973.90
2019-03-13T04:59:14.083Z,91968.86
2019-03-13T05:02:02.269Z,91965.02
2019-03-13T05:04:50.722Z,91965.92
2019-03-13T05:07:39.295Z,91967.66
2019-03-13T05:10:27.952Z,91969.93
2019-03-13T05:13:16.088Z,91981.05
2019-03-13T05:16:05.264Z,91981.97
2019-03-13T05:18:53.603Z,91990.74
2019-03-13T05:21:42.963Z,91989.19
2019-03-13T05:24:34.893Z,91989.99
2019-03-13T05:27:22.703Z,91989.72
2019-03-13T05:30:10.848Z,91991.52
2019-03-13T05:32:59.068Z,91985.11
2019-03-13T05:35:47.039Z,91996.93
2019-03-13T05:38:35.364Z,91994.31
2019-03-13T05:41:23.064Z,92003.36
2019-03-13T05:44:11.516Z,91996.58
2019-03-13T05:47:03.399Z,91993.13
2019-03-13T05:49:51.852Z,91986.92
2019-03-13T05:52:39.590Z,91992.73
2019-03-13T05:55:27.955Z,91995.17
2019-03-13T05:58:16.316Z,91999.28
2019-03-13T06:01:05.432Z,92003.96
2019-03-13T06:03:59.711Z,92011.31
2019-03-13T06:06:48.166Z,92018.02
2019-03-13T06:09:36.607Z,92020.05
2019-03-13T06:12:25.012Z,92020.19
2019-03-13T06:15:13.044Z,92025.91
2019-03-13T06:18:01.194Z,92025.77
2019-03-13T06:20:49.496Z,92021.80
2019-03-13T06:23:37.595Z,92027.63
2019-03-13T06:26:25.787Z,92021.72
2019-03-13T06:29:14.125Z,92034.67
2019-03-13T06:32:02.315Z,92036.20
2019-03-13T06:34:50.824Z,92033.56
2019-03-13T06:37:38.951Z,92037.03
2019-03-13T06:40:27.351Z,92030.51
2019-03-13T06:43:15.415Z,92017.95
2019-03-13T06:46:03.272Z,92027.14
2019-03-13T06:48:51.339Z,92025.50
2019-03-13T06:51:39.792Z,92022.84
2019-03-13T06:54:27.284Z,92025.50
2019-03-13T06:57:15.571Z,92031.83
2019-03-13T07:00:22.681Z,92023.02
2019-03-13T07:03:27.947Z,92024.02
2019-03-13T07:06:28.507Z,92024.72
2019-03-13T07:09:21.602Z,92026.25
2019-03-13T07:12:28.874Z,92019.16
2019-03-13T07:15:38.741Z,92021.14
2019-03-13T07:18:45.488Z,92023.91
2019-03-13T07:22:10.511Z,92016.47
2019-03-13T07:25:32.914Z,92018.16
2019-03-13T07:29:07.440Z,92021.77
2019-03-13T07:32:01.976Z,92032.02
2019-03-13T07:35:09.473Z,92020.59
2019-03-13T07:38:28.151Z,92023.81
2019-03-13T07:41:24.785Z,92018.83
2019-03-13T07:44:22.334Z,92015.80
2019-03-13T07:47:41.457Z,92020.48
2019-03-13T07:50:41.331Z,92016.25
2019-03-13T07:53:44.179Z,92023.45
2019-03-13T07:56:59.971Z,92019.13
2019-03-13T08:00:13.168Z,92015.22
2019-03-13T08:03:07.936Z,92006.55
2019-03-13T08:06:15.132Z,92001.42
2019-03-13T08:09:12.382Z,91998.76
2019-03-13T08:12:19.918Z,91987.88
2019-03-13T08:15:26.308Z,91991.93
2019-03-13T08:18:52.108Z,91991.67
2019-03-13T08:22:10.972Z,91983.38
2019-03-13T08:25:18.934Z,91984.88
2019-03-13T08:28:22.252Z,91981.06
2019-03-13T08:31:42.296Z,91980.53
2019-03-13T08:34:39.243Z,91973.12
2019-03-13T08:37:36.396Z,91969.16
2019-03-13T08:40:46.301Z,91970.70
2019-03-13T08:43:51.901Z,91967.40
2019-03-13T08:46:58.795Z,91967.24
2019-03-13T08:50:04.895Z,91978.17
2019-03-13T08:53:02.698Z,91975.15
2019-03-13T08:56:09.585Z,91962.52
2019-03-13T08:59:08.914Z,91965.64
2019-03-13T09:02:04.264Z,91962.88
2019-03-13T09:05:11.703Z,91961.05
2019-03-13T09:08:30.315Z,91961.83
2019-03-13T09:11:26.783Z,91959.17
2019-03-13T09:14:21.109Z,91955.77
2019-03-13T09:17:24.154Z,91953.72
2019-03-13T09:20:32.072Z,91947.84
2019-03-13T09:23:43.252Z,91952.76
2019-03-13T09:26:48.482Z,91954.45
2019-03-13T09:29:55.916Z,91950.55
2019-03-13T09:33:08.460Z,91931.56
2019-03-13T09:36:34.050Z,91934.14
2019-03-13T09:39:41.037Z,91934.72
2019-03-13T09:42:39.305Z,91932.09
2019-03-13T09:45:48.932Z,91924.63
2019-03-13T09:48:56.639Z,91930.52
2019-03-13T09:52:04.218Z,91914.80
2019-03-13T09:55:20.449Z,91919.30
2019-03-13T09:58:39.525Z,91919.02
2019-03-13T10:01:45.070Z,91915.88
2019-03-13T10:04:55.396Z,91909.88
2019-03-13T10:07:49.855Z,91907.36
2019-03-13T10:11:11.932Z,91905.68
2019-03-13T10:14:07.413Z,91900.72
2019-03-13T10:17:32.103Z,91889.97
2019-03-13T10:20:47.573Z,91881.30
2019-03-13T10:24:03.517Z,91876.05
2019-03-13T10:27:08.954Z,91876.07
2019-03-13T10:30:05.898Z,91879.96
2019-03-13T10:33:13.028Z,91873.68
2019-03-13T10:36:13.509Z,91869.21
2019-03-13T10:39:11.591Z,91870.47
2019-03-13T10:42:10.451Z,91869.22
2019-03-13T10:45:09.553Z,91873.94
2019-03-13T10:48:05.831Z,91866.53
2019-03-13T10:51:21.669Z,91862.39
2019-03-13T10:54:25.335Z,91860.57
2019-03-13T10:57:28.488Z,91852.20
2019-03-13T11:00:27.634Z,91851.88
2019-03-13T11:03:33.563Z,91848.11
2019-03-13T11:06:38.527Z,91835.55
2019-03-13T11:09:38.020Z,91842.45
2019-03-13T11:12:59.413Z,91834.19
2019-03-13T11:16:11.953Z,91836.98
2019-03-13T11:19:18.563Z,91833.59
2019-03-13T11:22:19.160Z,91828.62
2019-03-13T11:25:25.527Z,91829.44
2019-03-13T11:28:26.065Z,91813.68
2019-03-13T11:31:31.323Z,91816.06
2019-03-13T11:34:41.225Z,91814.23
2019-03-13T11:37:46.710Z,91810.69
2019-03-13T11:40:54.188Z,91805.90
2019-03-13T11:44:03.499Z,91793.53
2019-03-13T11:47:22.086Z,91784.52
2019-03-13T11:50:37.956Z,91787.16
2019-03-13T11:53:37.320Z,91789.74
2019-03-13T11:56:52.896Z,91781.41
2019-03-13T11:59:51.387Z,91775.21
2019-03-13T12:02:53.894Z,91763.28
2019-03-13T12:05:56.455Z,91752.39
2019-03-13T12:09:21.623Z,91756.28
2019-03-13T12:12:31.456Z,91745.05
2019-03-13T12:15:43.820Z,91733.33
2019-03-13T12:18:53.471Z,91732.05
2019-03-13T12:25:24.996Z,91732.59
2019-03-13T12:28:35.828Z,91724.25
2019-03-13T12:31:57.861Z,91727.92
2019-03-13T12:35:00.400Z,91732.22
2019-03-13T12:37:58.584Z,91726.01
2019-03-13T12:41:14.155Z,91725.02
2019-03-13T12:44:20.544Z,91730.22
2019-03-13T12:47:32.981Z,91725.53
2019-03-13T12:50:39.643Z,91734.09
2019-03-13T12:53:46.737Z,91730.39
2019-03-13T12:57:00.254Z,91729.63
2019-03-13T12:59:56.672Z,91723.69
2019-03-13T13:03:03.612Z,91717.55
2019-03-13T13:06:28.468Z,91714.36
2019-03-13T13:09:41.622Z,91713.45
2019-03-13T13:12:44.364Z,91715.42
2019-03-13T13:15:57.271Z,91713.84
2019-03-13T13:18:53.289Z,91717.98
2019-03-13T13:21:23.448Z,91722.39
2019-03-13T13:23:53.386Z,91719.20
2019-03-13T13:26:23.227Z,91717.77
2019-03-13T13:28:53.093Z,91716.72
2019-03-13T13:31:22.997Z,91706.97
2019-03-13T13:33:52.741Z,91709.36
2019-03-13T13:36:22.519Z,91707.70
2019-03-13T13:38:52.256Z,91703.25
2019-03-13T13:41:21.987Z,91703.60
2019-03-13T13:43:51.854Z,91697.10
2019-03-13T13:46:31.624Z,91690.02
2019-03-13T13:49:01.744Z,91694.80
2019-03-13T13:51:32.894Z,91689.09
2019-03-13T13:54:03.142Z,91691.08
2019-03-13T13:56:32.917Z,91689.26
2019-03-13T13:59:03.984Z,91679.81
2019-03-13T14:01:34.853Z,91688.25
2019-03-13T14:04:05.814Z,91683.11
2019-03-13T14:06:36.833Z,91674.00
2019-03-13T14:09:08.511Z,91685.37
2019-03-13T14:11:39.396Z,91681.16
2019-03-13T14:14:28.436Z,91682.41
2019-03-13T14:16:59.348Z,91681.06
2019-03-13T14:19:30.199Z,91683.30
2019-03-13T14:22:01.159Z,91681.46
2019-03-13T14:24:32.091Z,91669.87
2019-03-13T14:27:14.031Z,91672.70
2019-03-13T14:29:33.306Z,91676.72
2019-03-13T14:32:03.173Z,91678.52
2019-03-13T14:34:32.906Z,91675.89
2019-03-13T14:37:02.637Z,91675.13
2019-03-13T14:39:32.406Z,91678.29
2019-03-13T14:42:02.149Z,91672.11
2019-03-13T14:44:31.882Z,91665.30
2019-03-13T14:47:01.733Z,91673.92
2019-03-13T14:49:31.502Z,91670.60
2019-03-13T14:52:01.200Z,91674.38
2019-03-13T14:54:30.964Z,91676.33
2019-03-13T14:57:00.728Z,91675.41
2019-03-13T14:59:30.471Z,91674.84
2019-03-13T15:02:00.231Z,91677.88
2019-03-13T15:04:29.964Z,91674.48
2019-03-13T15:06:59.715Z,91675.91
2019-03-13T15:09:29.547Z,91679.44
2019-03-13T15:11:59.293Z,91675.90
2019-03-13T15:14:29.033Z,91670.67
2019-03-13T15:16:58.810Z,91669.20
2019-03-13T15:19:28.544Z,91671.76
2019-03-13T15:21:58.274Z,91667.38
2019-03-13T15:24:28.041Z,91671.92
2019-03-13T15:26:57.768Z,91673.10
2019-03-13T15:29:27.507Z,91672.20
2019-03-13T15:31:57.324Z,91673.14
2019-03-13T15:34:27.068Z,91679.56
2019-03-13T15:36:56.804Z,91679.78
2019-03-13T15:39:26.582Z,91678.77
2019-03-13T15:41:56.320Z,91682.98
2019-03-13T15:44:26.056Z,91681.09
2019-03-13T15:46:55.829Z,91676.08
2019-03-13T15:49:25.579Z,91688.88
2019-03-13T15:51:55.325Z,91684.14
2019-03-13T15:54:25.157Z,91693.22
2019-03-13T15:56:55.021Z,91693.00
2019-03-13T15:59:24.766Z,91690.12
2019-03-13T16:01:54.655Z,91682.69
2019-03-13T16:04:24.325Z,91681.39
2019-03-13T16:06:56.861Z,91678.35
2019-03-13T16:09:26.707Z,91679.77
2019-03-13T16:11:56.433Z,91685.50
2019-03-13T16:14:27.474Z,91684.48
2019-03-13T16:16:58.366Z,91687.95
2019-03-13T16:19:28.209Z,91692.99
2019-03-13T16:21:57.950Z,91690.64
2019-03-13T16:24:27.792Z,91700.39
2019-03-13T16:26:57.512Z,91701.44
2019-03-13T16:29:27.252Z,91699.67
2019-03-13T16:31:57.232Z,91699.28
2019-03-13T16:34:27.069Z,91691.97
2019-03-13T16:36:57.236Z,91684.88
2019-03-13T16:39:27.007Z,91691.73
2019-03-13T16:41:56.760Z,91692.13
2019-03-13T16:44:26.504Z,91695.42
2019-03-13T16:46:56.339Z,91698.11
2019-03-13T16:49:26.076Z,91701.50
2019-03-13T16:51:55.805Z,91703.63
2019-03-13T16:54:25.656Z,91696.92
2019-03-13T16:56:55.383Z,91691.42
2019-03-13T16:59:25.116Z,91686.07
2019-03-13T17:01:54.903Z,91688.11
2019-03-13T17:04:24.624Z,91682.37
2019-03-13T17:06:54.672Z,91690.31
2019-03-13T17:09:24.499Z,91688.58
2019-03-13T17:11:54.239Z,91693.37
2019-03-13T17:14:24.044Z,91700.47
2019-03-13T17:16:53.851Z,91702.58
2019-03-13T17:19:23.583Z,91699.20
2019-03-13T17:21:53.324Z,91687.73
2019-03-13T17:24:23.094Z,91707.63
2019-03-13T17:26:52.845Z,91702.27
2019-03-13T17:29:22.598Z,91705.22
2019-03-13T17:31:52.532Z,91704.53
2019-03-13T17:34:22.283Z,91706.64
2019-03-13T17:36:52.037Z,91703.64
2019-03-13T17:39:21.829Z,91707.63
2019-03-13T17:41:51.560Z,91711.78
2019-03-13T17:44:21.306Z,91704.31
2019-03-13T17:46:51.121Z,91697.87
2019-03-13T17:49:20.861Z,91700.95
2019-03-13T17:51:50.598Z,91707.40
2019-03-13T17:54:21.008Z,91713.12
2019-03-13T17:56:50.889Z,91719.35
2019-03-13T17:59:20.903Z,91728.43
2019-03-13T18:01:50.693Z,91730.31
2019-03-13T18:04:20.429Z,91730.55
2019-03-13T18:06:50.165Z,91734.83
2019-03-13T18:09:19.945Z,91733.70
2019-03-13T18:11:49.824Z,91736.75
2019-03-13T18:14:19.603Z,91741.38
2019-03-13T18:16:49.456Z,91742.17
2019-03-13T18:19:19.432Z,91745.72
2019-03-13T18:21:53.576Z,91754.81
2019-03-13T18:24:23.648Z,91760.08
2019-03-13T18:26:53.375Z,91748.48
2019-03-13T18:29:23.119Z,91754.11
2019-03-13T18:31:54.120Z,91755.45
2019-03-13T18:34:23.860Z,91757.95
2019-03-13T18:36:54.365Z,91754.37
2019-03-13T18:39:24.180Z,91756.88
2019-03-13T18:41:54.603Z,91752.02
2019-03-13T18:44:24.340Z,91748.92
2019-03-13T18:46:54.223Z,91756.83
2019-03-13T18:49:23.971Z,91753.50
2019-03-13T18:51:53.706Z,91761.90
2019-03-13T18:54:23.550Z,91743.55
2019-03-13T18:56:53.269Z,91748.84
2019-03-13T18:59:23.005Z,91748.92
2019-03-13T19:01:52.788Z,91751.42
2019-03-13T19:04:22.716Z,91756.16
2019-03-13T19:06:52.451Z,91756.91
2019-03-13T19:09:22.322Z,91757.97
2019-03-13T19:11:52.369Z,91759.11
2019-03-13T19:14:22.200Z,91755.10
2019-03-13T19:16:52.027Z,91758.23
2019-03-13T19:19:21.905Z,91752.09
2019-03-13T19:21:51.648Z,91742.70
2019-03-13T19:24:39.821Z,91738.59
2019-03-13T19:27:27.692Z,91741.23
2019-03-13T19:30:17.441Z,91743.23
2019-03-13T19:33:05.636Z,91759.92
2019-03-13T19:35:35.667Z,91753.80
2019-03-13T19:38:05.807Z,91749.77
2019-03-13T19:40:35.788Z,91743.84
2019-03-13T19:43:05.557Z,91751.31
2019-03-13T19:45:36.534Z,91749.53
2019-03-13T19:48:06.285Z,91746.77
2019-03-13T19:50:36.128Z,91746.56
2019-03-13T19:53:05.913Z,91746.87
2019-03-13T19:55:35.748Z,91748.37
2019-03-13T19:58:05.699Z,91754.17
2019-03-13T20:00:35.452Z,91752.75
2019-03-13T20:03:05.695Z,91750.61
2019-03-13T20:05:44.677Z,91754.95
2019-03-13T20:08:06.951Z,91747.03
2019-03-13T20:10:37.028Z,91757.81
2019-03-13T20:13:07.049Z,91758.71
2019-03-13T20:15:37.000Z,91753.09
2019-03-13T20:18:07.184Z,91765.55
2019-03-13T20:20:38.828Z,91767.73
2019-03-13T20:23:09.870Z,91765.02
2019-03-13T20:25:39.759Z,91768.09
2019-03-13T20:28:10.030Z,91761.02
2019-03-13T20:30:39.951Z,91756.34
2019-03-13T20:33:10.506Z,91767.50
2019-03-13T20:35:40.887Z,91766.16
2019-03-13T20:38:10.895Z,91770.05
2019-03-13T20:40:41.140Z,91767.48
2019-03-13T20:43:11.374Z,91763.05
2019-03-13T20:45:41.784Z,91764.06
2019-03-13T20:48:11.925Z,91769.22
2019-03-13T20:50:42.214Z,91767.43
2019-03-13T20:53:12.088Z,91769.03
2019-03-13T20:55:41.903Z,91766.37
2019-03-13T20:58:11.916Z,91764.57
2019-03-13T21:00:41.755Z,91761.98
2019-03-13T21:03:11.683Z,91765.89
2019-03-13T21:05:41.571Z,91758.60
2019-03-13T21:08:11.850Z,91755.13
2019-03-13T21:10:41.813Z,91753.62
2019-03-13T21:13:11.727Z,91761.80
2019-03-13T21:15:43.576Z,91759.22
2019-03-13T21:18:13.224Z,91749.08
2019-03-13T21:20:43.231Z,91743.58
2019-03-13T21:23:13.482Z,91740.83
2019-03-13T21:25:46.758Z,91735.59
2019-03-13T21:28:16.639Z,91737.80
2019-03-13T21:30:46.509Z,91737.11
2019-03-13T21:33:18.231Z,91734.71
2019-03-13T21:35:48.358Z,91730.45
2019-03-13T21:38:19.930Z,91734.89
2019-03-13T21:40:50.147Z,91731.16
2019-03-13T21:43:19.971Z,91736.84
2019-03-13T21:45:51.105Z,91730.10
2019-03-13T21:48:20.960Z,91726.91
2019-03-13T21:50:51.209Z,91714.91
2019-03-13T21:53:20.975Z,91716.16
2019-03-13T21:55:50.915Z,91719.65
2019-03-13T21:58:22.029Z,91725.16
2019-03-13T22:00:57.839Z,91726.58
2019-03-13T22:03:32.308Z,91731.55
2019-03-13T22:05:59.715Z,91725.08
2019-03-13T22:08:29.573Z,91713.88
2019-03-13T22:10:59.398Z,91708.82
2019-03-13T22:13:29.559Z,91706.59
2019-03-13T22:15:59.606Z,91720.45
2019-03-13T22:18:29.702Z,91717.88
2019-03-13T22:20:59.535Z,91720.36
2019-03-13T22:23:29.801Z,91716.45
2019-03-13T22:25:59.641Z,91720.62
2019-03-13T22:28:29.463Z,91719.56
2019-03-13T22:31:02.553Z,91719.03
2019-03-13T22:33:30.768Z,91711.04
2019-03-13T22:36:00.581Z,91701.53
2019-03-13T22:38:30.523Z,91701.79
2019-03-13T22:41:00.480Z,91695.77
2019-03-13T22:43:30.264Z,91697.44
2019-03-13T22:46:00.129Z,91705.09
2019-03-13T22:48:29.952Z,91698.16
2019-03-13T22:51:02.367Z,91699.59
2019-03-13T22:53:31.376Z,91694.00
2019-03-13T22:56:04.136Z,91701.34
2019-03-13T22:58:34.299Z,91698.61
2019-03-13T23:01:10.984Z,91691.05
2019-03-13T23:03:41.034Z,91686.44
2019-03-13T23:06:11.051Z,91680.51
2019-03-13T23:08:40.967Z,91684.94
2019-03-13T23:11:10.889Z,91690.26
2019-03-13T23:13:40.720Z,91690.78
2019-03-13T23:16:10.706Z,91698.16
2019-03-13T23:18:40.519Z,91694.96
2019-03-13T23:21:10.365Z,91691.75
2019-03-13T23:23:40.219Z,91684.30
2019-03-13T23:26:10.142Z,91695.11
2019-03-13T23:28:46.540Z,91700.07
2019-03-13T23:31:16.381Z,91691.22
2019-03-13T23:33:46.215Z,91694.33
2019-03-13T23:36:16.082Z,91699.91
2019-03-13T23:38:46.281Z,91693.00
2019-03-13T23:41:17.024Z,91689.97
2019-03-13T23:43:46.956Z,91695.09
2019-03-13T23:46:16.787Z,91696.08
2019-03-13T23:48:46.600Z,91694.80
2019-03-13T23:51:16.481Z,91701.64
2019-03-13T23:53:46.296Z,91699.66
2019-03-13T23:56:16.518Z,91704.09
2019-03-13T23:58:46.370Z,91703.54
